sensor_id;sensor_type;location;lat;lon;timestamp;temperature;humidity
41344;DHT22;27089;50.022;7.604;2022-10-13T00:00:50;8.00;99.90
41344;DHT22;27089;50.022;7.604;2022-10-13T00:03:18;8.00;99.90
41344;DHT22;27089;50.022;7.604;2022-10-13T00:05:47;7.90;99.90
41344;DHT22;27089;50.022;7.604;2022-10-13T00:08:16;7.90;99.90
41344;DHT22;27089;50.022;7.604;2022-10-13T00:10:45;7.90;99.90
41344;DHT22;27089;50.022;7.604;2022-10-13T00:13:13;7.90;99.90
41344;DHT22;27089;50.022;7.604;2022-10-13T00:15:43;7.80;99.90
41344;DHT22;27089;50.022;7.604;2022-10-13T00:18:11;7.70;99.90
41344;DHT22;27089;50.022;7.604;2022-10-13T00:20:40;7.70;99.90
41344;DHT22;27089;50.022;7.604;2022-10-13T00:23:08;7.80;99.90
41344;DHT22;27089;50.022;7.604;2022-10-13T00:25:40;7.80;99.90
41344;DHT22;27089;50.022;7.604;2022-10-13T00:28:07;7.80;99.90
41344;DHT22;27089;50.022;7.604;2022-10-13T00:30:34;7.80;99.90
41344;DHT22;27089;50.022;7.604;2022-10-13T00:33:03;7.90;99.90
41344;DHT22;27089;50.022;7.604;2022-10-13T00:35:30;7.90;99.90
41344;DHT22;27089;50.022;7.604;2022-10-13T00:37:57;7.90;99.90
41344;DHT22;27089;50.022;7.604;2022-10-13T00:40:24;7.90;99.90
41344;DHT22;27089;50.022;7.604;2022-10-13T00:42:51;7.90;99.90
41344;DHT22;27089;50.022;7.604;2022-10-13T00:45:23;7.80;99.90
41344;DHT22;27089;50.022;7.604;2022-10-13T00:47:56;7.80;99.90
41344;DHT22;27089;50.022;7.604;2022-10-13T00:50:29;7.80;99.90
41344;DHT22;27089;50.022;7.604;2022-10-13T00:52:58;7.80;99.90
41344;DHT22;27089;50.022;7.604;2022-10-13T00:55:29;7.80;99.90
41344;DHT22;27089;50.022;7.604;2022-10-13T00:57:58;7.80;99.90
41344;DHT22;27089;50.022;7.604;2022-10-13T01:00:27;7.80;99.90
41344;DHT22;27089;50.022;7.604;2022-10-13T01:02:54;7.80;99.90
41344;DHT22;27089;50.022;7.604;2022-10-13T01:05:22;7.80;99.90
41344;DHT22;27089;50.022;7.604;2022-10-13T01:07:51;7.80;99.90
41344;DHT22;27089;50.022;7.604;2022-10-13T01:10:26;7.80;99.90
41344;DHT22;27089;50.022;7.604;2022-10-13T01:12:59;7.80;99.90
41344;DHT22;27089;50.022;7.604;2022-10-13T01:15:32;7.80;99.90
41344;DHT22;27089;50.022;7.604;2022-10-13T01:18:15;7.80;99.90
41344;DHT22;27089;50.022;7.604;2022-10-13T01:21:07;7.80;99.90
41344;DHT22;27089;50.022;7.604;2022-10-13T01:24:13;7.70;99.90
41344;DHT22;27089;50.022;7.604;2022-10-13T01:30:04;7.70;99.90
41344;DHT22;27089;50.022;7.604;2022-10-13T01:32:48;7.70;99.90
41344;DHT22;27089;50.022;7.604;2022-10-13T01:35:22;7.70;99.90
41344;DHT22;27089;50.022;7.604;2022-10-13T01:37:54;7.80;99.90
41344;DHT22;27089;50.022;7.604;2022-10-13T01:40:27;7.80;99.90
41344;DHT22;27089;50.022;7.604;2022-10-13T01:43:00;7.70;99.90
41344;DHT22;27089;50.022;7.604;2022-10-13T01:45:33;7.70;99.90
41344;DHT22;27089;50.022;7.604;2022-10-13T01:48:04;7.60;99.90
41344;DHT22;27089;50.022;7.604;2022-10-13T01:50:32;7.60;99.90
41344;DHT22;27089;50.022;7.604;2022-10-13T01:53:01;7.60;99.90
41344;DHT22;27089;50.022;7.604;2022-10-13T01:55:29;7.60;99.90
41344;DHT22;27089;50.022;7.604;2022-10-13T01:57:56;7.60;99.90
41344;DHT22;27089;50.022;7.604;2022-10-13T02:00:23;7.70;99.90
41344;DHT22;27089;50.022;7.604;2022-10-13T02:03:04;7.70;99.90
41344;DHT22;27089;50.022;7.604;2022-10-13T02:05:42;7.70;99.90
41344;DHT22;27089;50.022;7.604;2022-10-13T02:08:19;7.70;99.90
41344;DHT22;27089;50.022;7.604;2022-10-13T02:10:51;7.80;99.90
41344;DHT22;27089;50.022;7.604;2022-10-13T02:13:26;7.70;99.90
41344;DHT22;27089;50.022;7.604;2022-10-13T02:15:54;7.70;99.90
41344;DHT22;27089;50.022;7.604;2022-10-13T02:18:26;7.80;99.90
41344;DHT22;27089;50.022;7.604;2022-10-13T02:20:55;7.80;99.90
41344;DHT22;27089;50.022;7.604;2022-10-13T02:23:23;7.90;99.90
41344;DHT22;27089;50.022;7.604;2022-10-13T02:25:50;7.90;99.90
41344;DHT22;27089;50.022;7.604;2022-10-13T02:28:17;8.00;99.90
41344;DHT22;27089;50.022;7.604;2022-10-13T02:30:45;8.10;99.90
41344;DHT22;27089;50.022;7.604;2022-10-13T02:33:13;8.10;99.90
41344;DHT22;27089;50.022;7.604;2022-10-13T02:35:42;8.20;99.90
41344;DHT22;27089;50.022;7.604;2022-10-13T02:38:09;8.20;99.90
41344;DHT22;27089;50.022;7.604;2022-10-13T02:40:37;8.20;99.90
41344;DHT22;27089;50.022;7.604;2022-10-13T02:43:04;8.20;99.90
41344;DHT22;27089;50.022;7.604;2022-10-13T02:45:31;8.20;99.90
41344;DHT22;27089;50.022;7.604;2022-10-13T02:47:58;8.20;99.90
41344;DHT22;27089;50.022;7.604;2022-10-13T02:50:25;8.20;99.90
41344;DHT22;27089;50.022;7.604;2022-10-13T02:52:53;8.20;99.90
41344;DHT22;27089;50.022;7.604;2022-10-13T02:55:20;8.20;99.90
41344;DHT22;27089;50.022;7.604;2022-10-13T02:57:47;8.20;99.90
41344;DHT22;27089;50.022;7.604;2022-10-13T03:00:15;8.20;99.90
41344;DHT22;27089;50.022;7.604;2022-10-13T03:02:42;8.20;99.90
41344;DHT22;27089;50.022;7.604;2022-10-13T03:05:09;8.20;99.90
41344;DHT22;27089;50.022;7.604;2022-10-13T03:07:36;8.20;99.90
41344;DHT22;27089;50.022;7.604;2022-10-13T03:10:05;8.20;99.90
41344;DHT22;27089;50.022;7.604;2022-10-13T03:12:32;8.20;99.90
41344;DHT22;27089;50.022;7.604;2022-10-13T03:14:59;8.20;99.90
41344;DHT22;27089;50.022;7.604;2022-10-13T03:17:26;8.10;99.90
41344;DHT22;27089;50.022;7.604;2022-10-13T03:19:53;8.10;99.90
41344;DHT22;27089;50.022;7.604;2022-10-13T03:22:20;8.10;99.90
41344;DHT22;27089;50.022;7.604;2022-10-13T03:24:47;8.10;99.90
41344;DHT22;27089;50.022;7.604;2022-10-13T03:27:15;8.00;99.90
41344;DHT22;27089;50.022;7.604;2022-10-13T03:29:42;8.00;99.90
41344;DHT22;27089;50.022;7.604;2022-10-13T03:32:09;8.00;99.90
41344;DHT22;27089;50.022;7.604;2022-10-13T03:34:36;8.00;99.90
41344;DHT22;27089;50.022;7.604;2022-10-13T03:37:03;8.00;99.90
41344;DHT22;27089;50.022;7.604;2022-10-13T03:39:30;8.00;99.90
41344;DHT22;27089;50.022;7.604;2022-10-13T03:41:57;8.00;99.90
41344;DHT22;27089;50.022;7.604;2022-10-13T03:44:25;8.00;99.90
41344;DHT22;27089;50.022;7.604;2022-10-13T03:46:52;7.90;99.90
41344;DHT22;27089;50.022;7.604;2022-10-13T03:49:19;7.80;99.90
41344;DHT22;27089;50.022;7.604;2022-10-13T03:51:46;7.80;99.90
41344;DHT22;27089;50.022;7.604;2022-10-13T03:54:13;7.80;99.90
41344;DHT22;27089;50.022;7.604;2022-10-13T03:56:40;7.90;99.90
41344;DHT22;27089;50.022;7.604;2022-10-13T03:59:11;7.90;99.90
41344;DHT22;27089;50.022;7.604;2022-10-13T04:01:39;7.80;99.90
41344;DHT22;27089;50.022;7.604;2022-10-13T04:04:08;7.90;99.90
41344;DHT22;27089;50.022;7.604;2022-10-13T04:06:36;7.90;99.90
41344;DHT22;27089;50.022;7.604;2022-10-13T04:09:03;7.80;99.90
41344;DHT22;27089;50.022;7.604;2022-10-13T04:11:30;7.70;99.90
41344;DHT22;27089;50.022;7.604;2022-10-13T04:13:57;7.70;99.90
41344;DHT22;27089;50.022;7.604;2022-10-13T04:16:26;7.70;99.90
41344;DHT22;27089;50.022;7.604;2022-10-13T04:18:56;7.70;99.90
41344;DHT22;27089;50.022;7.604;2022-10-13T04:21:24;7.70;99.90
41344;DHT22;27089;50.022;7.604;2022-10-13T04:23:53;7.80;99.90
41344;DHT22;27089;50.022;7.604;2022-10-13T04:26:23;7.90;99.90
41344;DHT22;27089;50.022;7.604;2022-10-13T04:28:52;7.90;99.90
41344;DHT22;27089;50.022;7.604;2022-10-13T04:31:20;8.00;99.90
41344;DHT22;27089;50.022;7.604;2022-10-13T04:33:47;8.00;99.90
41344;DHT22;27089;50.022;7.604;2022-10-13T04:36:16;8.00;99.90
41344;DHT22;27089;50.022;7.604;2022-10-13T04:38:43;8.00;99.90
41344;DHT22;27089;50.022;7.604;2022-10-13T04:41:11;8.00;99.90
41344;DHT22;27089;50.022;7.604;2022-10-13T04:43:39;8.00;99.90
41344;DHT22;27089;50.022;7.604;2022-10-13T04:46:07;7.90;99.90
41344;DHT22;27089;50.022;7.604;2022-10-13T04:48:35;7.90;99.90
41344;DHT22;27089;50.022;7.604;2022-10-13T04:51:04;7.90;99.90
41344;DHT22;27089;50.022;7.604;2022-10-13T04:53:33;7.90;99.90
41344;DHT22;27089;50.022;7.604;2022-10-13T04:56:01;8.00;99.90
41344;DHT22;27089;50.022;7.604;2022-10-13T04:58:28;8.00;99.90
41344;DHT22;27089;50.022;7.604;2022-10-13T05:00:55;8.00;99.90
41344;DHT22;27089;50.022;7.604;2022-10-13T05:03:23;8.10;99.90
41344;DHT22;27089;50.022;7.604;2022-10-13T05:05:51;8.10;99.90
41344;DHT22;27089;50.022;7.604;2022-10-13T05:08:18;8.10;99.90
41344;DHT22;27089;50.022;7.604;2022-10-13T05:10:53;8.10;99.90
41344;DHT22;27089;50.022;7.604;2022-10-13T05:13:20;8.00;99.90
41344;DHT22;27089;50.022;7.604;2022-10-13T05:15:47;8.10;99.90
41344;DHT22;27089;50.022;7.604;2022-10-13T05:18:14;8.10;99.90
41344;DHT22;27089;50.022;7.604;2022-10-13T05:20:41;8.10;99.90
41344;DHT22;27089;50.022;7.604;2022-10-13T05:23:08;8.10;99.90
41344;DHT22;27089;50.022;7.604;2022-10-13T05:25:35;8.10;99.90
41344;DHT22;27089;50.022;7.604;2022-10-13T05:28:05;8.20;99.90
41344;DHT22;27089;50.022;7.604;2022-10-13T05:30:33;8.20;99.90
41344;DHT22;27089;50.022;7.604;2022-10-13T05:33:00;8.30;99.90
41344;DHT22;27089;50.022;7.604;2022-10-13T05:35:27;8.30;99.90
41344;DHT22;27089;50.022;7.604;2022-10-13T05:37:54;8.30;99.90
41344;DHT22;27089;50.022;7.604;2022-10-13T05:40:21;8.40;99.90
41344;DHT22;27089;50.022;7.604;2022-10-13T05:42:48;8.40;99.90
41344;DHT22;27089;50.022;7.604;2022-10-13T05:45:18;8.40;99.90
41344;DHT22;27089;50.022;7.604;2022-10-13T05:47:47;8.40;99.90
41344;DHT22;27089;50.022;7.604;2022-10-13T05:50:14;8.30;99.90
41344;DHT22;27089;50.022;7.604;2022-10-13T05:52:41;8.30;99.90
41344;DHT22;27089;50.022;7.604;2022-10-13T05:55:10;8.30;99.90
41344;DHT22;27089;50.022;7.604;2022-10-13T05:57:42;8.30;99.90
41344;DHT22;27089;50.022;7.604;2022-10-13T06:00:12;8.40;99.90
41344;DHT22;27089;50.022;7.604;2022-10-13T06:02:44;8.40;99.90
41344;DHT22;27089;50.022;7.604;2022-10-13T06:05:14;8.40;99.90
41344;DHT22;27089;50.022;7.604;2022-10-13T06:07:42;8.50;99.90
41344;DHT22;27089;50.022;7.604;2022-10-13T06:10:10;8.50;99.90
41344;DHT22;27089;50.022;7.604;2022-10-13T06:12:37;8.50;99.90
41344;DHT22;27089;50.022;7.604;2022-10-13T06:15:06;8.60;99.90
41344;DHT22;27089;50.022;7.604;2022-10-13T06:17:35;8.60;99.90
41344;DHT22;27089;50.022;7.604;2022-10-13T06:20:05;8.60;99.90
41344;DHT22;27089;50.022;7.604;2022-10-13T06:22:32;8.60;99.90
41344;DHT22;27089;50.022;7.604;2022-10-13T06:25:00;8.60;99.90
41344;DHT22;27089;50.022;7.604;2022-10-13T06:27:27;8.70;99.90
41344;DHT22;27089;50.022;7.604;2022-10-13T06:29:54;8.70;99.90
41344;DHT22;27089;50.022;7.604;2022-10-13T06:32:21;8.70;99.90
41344;DHT22;27089;50.022;7.604;2022-10-13T06:34:48;8.70;99.90
41344;DHT22;27089;50.022;7.604;2022-10-13T06:37:17;8.80;99.90
41344;DHT22;27089;50.022;7.604;2022-10-13T06:39:44;8.80;99.90
41344;DHT22;27089;50.022;7.604;2022-10-13T06:42:11;8.80;99.90
41344;DHT22;27089;50.022;7.604;2022-10-13T06:44:38;8.80;99.90
41344;DHT22;27089;50.022;7.604;2022-10-13T06:47:05;8.80;99.90
41344;DHT22;27089;50.022;7.604;2022-10-13T06:49:32;8.80;99.90
41344;DHT22;27089;50.022;7.604;2022-10-13T06:51:59;8.80;99.90
41344;DHT22;27089;50.022;7.604;2022-10-13T06:54:28;8.80;99.90
41344;DHT22;27089;50.022;7.604;2022-10-13T06:56:55;8.80;99.90
41344;DHT22;27089;50.022;7.604;2022-10-13T06:59:22;8.80;99.90
41344;DHT22;27089;50.022;7.604;2022-10-13T07:01:51;8.80;99.90
41344;DHT22;27089;50.022;7.604;2022-10-13T07:04:18;8.80;99.90
41344;DHT22;27089;50.022;7.604;2022-10-13T07:06:45;8.70;99.90
41344;DHT22;27089;50.022;7.604;2022-10-13T07:09:12;8.70;99.90
41344;DHT22;27089;50.022;7.604;2022-10-13T07:11:42;8.80;99.90
41344;DHT22;27089;50.022;7.604;2022-10-13T07:14:09;8.80;99.90
41344;DHT22;27089;50.022;7.604;2022-10-13T07:16:36;8.90;99.90
41344;DHT22;27089;50.022;7.604;2022-10-13T07:19:03;8.90;99.90
41344;DHT22;27089;50.022;7.604;2022-10-13T07:21:30;9.00;99.90
41344;DHT22;27089;50.022;7.604;2022-10-13T07:23:57;9.10;99.90
41344;DHT22;27089;50.022;7.604;2022-10-13T07:26:24;9.10;99.90
41344;DHT22;27089;50.022;7.604;2022-10-13T07:28:52;9.20;99.90
41344;DHT22;27089;50.022;7.604;2022-10-13T07:31:20;9.30;99.90
41344;DHT22;27089;50.022;7.604;2022-10-13T07:33:48;9.40;99.90
41344;DHT22;27089;50.022;7.604;2022-10-13T07:36:16;9.50;99.90
41344;DHT22;27089;50.022;7.604;2022-10-13T07:38:44;9.70;99.90
41344;DHT22;27089;50.022;7.604;2022-10-13T07:41:11;9.70;99.90
41344;DHT22;27089;50.022;7.604;2022-10-13T07:43:39;9.70;99.90
41344;DHT22;27089;50.022;7.604;2022-10-13T07:46:09;9.80;99.90
41344;DHT22;27089;50.022;7.604;2022-10-13T07:48:36;9.70;99.90
41344;DHT22;27089;50.022;7.604;2022-10-13T07:51:04;9.80;99.90
41344;DHT22;27089;50.022;7.604;2022-10-13T07:53:31;9.90;99.90
41344;DHT22;27089;50.022;7.604;2022-10-13T07:56:00;9.90;99.90
41344;DHT22;27089;50.022;7.604;2022-10-13T07:58:27;10.00;99.90
41344;DHT22;27089;50.022;7.604;2022-10-13T08:00:57;10.10;99.90
41344;DHT22;27089;50.022;7.604;2022-10-13T08:03:27;10.10;99.90
41344;DHT22;27089;50.022;7.604;2022-10-13T08:05:57;10.30;99.90
41344;DHT22;27089;50.022;7.604;2022-10-13T08:08:24;10.40;99.90
41344;DHT22;27089;50.022;7.604;2022-10-13T08:10:52;10.50;99.90
41344;DHT22;27089;50.022;7.604;2022-10-13T08:13:19;10.50;99.90
41344;DHT22;27089;50.022;7.604;2022-10-13T08:15:46;10.60;99.90
41344;DHT22;27089;50.022;7.604;2022-10-13T08:18:13;10.60;99.90
41344;DHT22;27089;50.022;7.604;2022-10-13T08:20:44;10.70;99.90
41344;DHT22;27089;50.022;7.604;2022-10-13T08:23:11;10.70;99.90
41344;DHT22;27089;50.022;7.604;2022-10-13T08:25:39;10.70;99.90
41344;DHT22;27089;50.022;7.604;2022-10-13T08:28:16;10.70;99.90
41344;DHT22;27089;50.022;7.604;2022-10-13T08:30:43;10.80;99.90
41344;DHT22;27089;50.022;7.604;2022-10-13T08:33:10;10.90;99.90
41344;DHT22;27089;50.022;7.604;2022-10-13T08:35:37;10.90;99.90
41344;DHT22;27089;50.022;7.604;2022-10-13T08:38:06;10.90;99.90
41344;DHT22;27089;50.022;7.604;2022-10-13T08:40:33;11.00;99.90
41344;DHT22;27089;50.022;7.604;2022-10-13T08:43:04;11.10;99.90
41344;DHT22;27089;50.022;7.604;2022-10-13T08:45:32;11.20;99.90
41344;DHT22;27089;50.022;7.604;2022-10-13T08:48:00;11.30;99.90
41344;DHT22;27089;50.022;7.604;2022-10-13T08:50:31;11.40;99.90
41344;DHT22;27089;50.022;7.604;2022-10-13T08:53:04;11.50;99.90
41344;DHT22;27089;50.022;7.604;2022-10-13T08:55:36;11.60;99.90
41344;DHT22;27089;50.022;7.604;2022-10-13T08:58:10;11.70;99.90
41344;DHT22;27089;50.022;7.604;2022-10-13T09:00:38;11.80;99.90
41344;DHT22;27089;50.022;7.604;2022-10-13T09:03:18;11.80;99.90
41344;DHT22;27089;50.022;7.604;2022-10-13T09:05:57;11.90;99.90
41344;DHT22;27089;50.022;7.604;2022-10-13T09:08:26;11.90;99.90
41344;DHT22;27089;50.022;7.604;2022-10-13T09:10:55;12.00;99.90
41344;DHT22;27089;50.022;7.604;2022-10-13T09:13:24;12.10;99.90
41344;DHT22;27089;50.022;7.604;2022-10-13T09:15:51;12.30;99.90
41344;DHT22;27089;50.022;7.604;2022-10-13T09:18:27;12.50;99.90
41344;DHT22;27089;50.022;7.604;2022-10-13T09:21:15;12.70;99.90
41344;DHT22;27089;50.022;7.604;2022-10-13T09:23:43;12.90;99.90
41344;DHT22;27089;50.022;7.604;2022-10-13T09:26:18;13.10;99.90
41344;DHT22;27089;50.022;7.604;2022-10-13T09:28:45;13.20;99.90
41344;DHT22;27089;50.022;7.604;2022-10-13T09:31:17;13.30;99.90
41344;DHT22;27089;50.022;7.604;2022-10-13T09:33:45;13.40;99.90
41344;DHT22;27089;50.022;7.604;2022-10-13T09:36:22;13.50;99.90
41344;DHT22;27089;50.022;7.604;2022-10-13T09:39:05;13.50;99.90
41344;DHT22;27089;50.022;7.604;2022-10-13T09:41:35;13.50;99.90
41344;DHT22;27089;50.022;7.604;2022-10-13T09:44:25;13.50;99.90
41344;DHT22;27089;50.022;7.604;2022-10-13T09:46:54;13.50;99.90
41344;DHT22;27089;50.022;7.604;2022-10-13T09:49:35;13.50;99.90
41344;DHT22;27089;50.022;7.604;2022-10-13T09:52:05;13.60;99.90
41344;DHT22;27089;50.022;7.604;2022-10-13T09:54:41;13.60;99.90
41344;DHT22;27089;50.022;7.604;2022-10-13T09:57:16;13.60;99.90
41344;DHT22;27089;50.022;7.604;2022-10-13T09:59:47;13.70;99.90
41344;DHT22;27089;50.022;7.604;2022-10-13T10:02:21;13.80;99.90
41344;DHT22;27089;50.022;7.604;2022-10-13T10:04:51;14.00;99.90
41344;DHT22;27089;50.022;7.604;2022-10-13T10:07:24;14.10;99.90
41344;DHT22;27089;50.022;7.604;2022-10-13T10:09:56;14.30;99.90
41344;DHT22;27089;50.022;7.604;2022-10-13T10:12:30;14.50;99.90
41344;DHT22;27089;50.022;7.604;2022-10-13T10:14:59;14.70;99.90
41344;DHT22;27089;50.022;7.604;2022-10-13T10:17:31;14.80;99.90
41344;DHT22;27089;50.022;7.604;2022-10-13T10:20:09;14.80;99.90
41344;DHT22;27089;50.022;7.604;2022-10-13T10:22:44;14.80;99.90
41344;DHT22;27089;50.022;7.604;2022-10-13T10:25:25;14.70;99.90
41344;DHT22;27089;50.022;7.604;2022-10-13T10:28:07;14.70;99.90
41344;DHT22;27089;50.022;7.604;2022-10-13T10:30:43;14.60;99.90
41344;DHT22;27089;50.022;7.604;2022-10-13T10:33:16;14.60;99.90
41344;DHT22;27089;50.022;7.604;2022-10-13T10:35:49;14.60;99.90
41344;DHT22;27089;50.022;7.604;2022-10-13T10:38:25;14.70;99.90
41344;DHT22;27089;50.022;7.604;2022-10-13T10:41:01;14.70;99.90
41344;DHT22;27089;50.022;7.604;2022-10-13T10:43:46;14.70;99.90
41344;DHT22;27089;50.022;7.604;2022-10-13T10:46:16;14.80;99.90
41344;DHT22;27089;50.022;7.604;2022-10-13T10:48:46;14.90;99.90
41344;DHT22;27089;50.022;7.604;2022-10-13T10:51:15;15.00;99.90
41344;DHT22;27089;50.022;7.604;2022-10-13T10:53:55;15.10;99.90
41344;DHT22;27089;50.022;7.604;2022-10-13T10:56:30;15.20;99.90
41344;DHT22;27089;50.022;7.604;2022-10-13T10:59:10;15.30;99.90
41344;DHT22;27089;50.022;7.604;2022-10-13T11:01:48;15.50;99.90
41344;DHT22;27089;50.022;7.604;2022-10-13T11:04:42;15.60;99.90
41344;DHT22;27089;50.022;7.604;2022-10-13T11:07:11;15.70;99.90
41344;DHT22;27089;50.022;7.604;2022-10-13T11:10:00;15.70;99.90
41344;DHT22;27089;50.022;7.604;2022-10-13T11:12:47;15.80;99.90
41344;DHT22;27089;50.022;7.604;2022-10-13T11:15:22;15.80;99.90
41344;DHT22;27089;50.022;7.604;2022-10-13T11:17:50;15.90;99.90
41344;DHT22;27089;50.022;7.604;2022-10-13T11:20:47;15.90;99.90
41344;DHT22;27089;50.022;7.604;2022-10-13T11:23:30;15.90;99.90
41344;DHT22;27089;50.022;7.604;2022-10-13T11:26:29;16.00;99.90
41344;DHT22;27089;50.022;7.604;2022-10-13T11:28:57;16.10;99.90
41344;DHT22;27089;50.022;7.604;2022-10-13T11:31:28;16.10;99.90
41344;DHT22;27089;50.022;7.604;2022-10-13T11:33:58;16.20;99.90
41344;DHT22;27089;50.022;7.604;2022-10-13T11:36:52;16.20;99.90
41344;DHT22;27089;50.022;7.604;2022-10-13T11:40:01;16.10;99.90
41344;DHT22;27089;50.022;7.604;2022-10-13T11:42:43;16.00;99.90
41344;DHT22;27089;50.022;7.604;2022-10-13T11:45:26;15.90;99.90
41344;DHT22;27089;50.022;7.604;2022-10-13T11:51:04;15.80;99.90
41344;DHT22;27089;50.022;7.604;2022-10-13T11:53:42;15.70;99.90
41344;DHT22;27089;50.022;7.604;2022-10-13T11:56:19;15.60;99.90
41344;DHT22;27089;50.022;7.604;2022-10-13T11:58:47;15.60;99.90
41344;DHT22;27089;50.022;7.604;2022-10-13T12:01:15;15.50;99.90
41344;DHT22;27089;50.022;7.604;2022-10-13T12:03:45;15.40;99.90
41344;DHT22;27089;50.022;7.604;2022-10-13T12:06:28;15.40;99.90
41344;DHT22;27089;50.022;7.604;2022-10-13T12:09:01;15.30;99.90
41344;DHT22;27089;50.022;7.604;2022-10-13T12:11:30;15.30;99.90
41344;DHT22;27089;50.022;7.604;2022-10-13T12:13:59;15.30;99.90
41344;DHT22;27089;50.022;7.604;2022-10-13T12:16:27;15.20;99.90
41344;DHT22;27089;50.022;7.604;2022-10-13T12:19:07;15.20;99.90
41344;DHT22;27089;50.022;7.604;2022-10-13T12:21:47;15.20;99.90
41344;DHT22;27089;50.022;7.604;2022-10-13T12:24:14;15.40;99.90
41344;DHT22;27089;50.022;7.604;2022-10-13T12:26:42;15.50;99.90
41344;DHT22;27089;50.022;7.604;2022-10-13T12:29:11;15.70;99.90
41344;DHT22;27089;50.022;7.604;2022-10-13T12:31:40;15.80;99.90
41344;DHT22;27089;50.022;7.604;2022-10-13T12:34:19;15.90;99.90
41344;DHT22;27089;50.022;7.604;2022-10-13T12:36:53;16.00;99.90
41344;DHT22;27089;50.022;7.604;2022-10-13T12:39:21;16.10;99.90
41344;DHT22;27089;50.022;7.604;2022-10-13T12:41:50;16.20;99.90
41344;DHT22;27089;50.022;7.604;2022-10-13T12:44:19;16.20;99.90
41344;DHT22;27089;50.022;7.604;2022-10-13T12:46:48;16.30;99.90
41344;DHT22;27089;50.022;7.604;2022-10-13T12:49:20;16.20;99.90
41344;DHT22;27089;50.022;7.604;2022-10-13T12:51:49;16.30;99.90
41344;DHT22;27089;50.022;7.604;2022-10-13T12:54:20;16.30;99.90
41344;DHT22;27089;50.022;7.604;2022-10-13T12:56:49;16.30;99.90
41344;DHT22;27089;50.022;7.604;2022-10-13T12:59:18;16.40;99.90
41344;DHT22;27089;50.022;7.604;2022-10-13T13:01:52;16.40;99.90
41344;DHT22;27089;50.022;7.604;2022-10-13T13:04:30;16.40;99.90
41344;DHT22;27089;50.022;7.604;2022-10-13T13:06:58;16.40;99.90
41344;DHT22;27089;50.022;7.604;2022-10-13T13:09:27;16.50;99.90
41344;DHT22;27089;50.022;7.604;2022-10-13T13:12:16;16.60;99.90
41344;DHT22;27089;50.022;7.604;2022-10-13T13:14:45;16.70;99.90
41344;DHT22;27089;50.022;7.604;2022-10-13T13:17:19;16.70;99.90
41344;DHT22;27089;50.022;7.604;2022-10-13T13:19:49;16.70;99.90
41344;DHT22;27089;50.022;7.604;2022-10-13T13:22:17;16.70;99.90
41344;DHT22;27089;50.022;7.604;2022-10-13T13:24:44;16.60;99.90
41344;DHT22;27089;50.022;7.604;2022-10-13T13:27:22;16.50;99.90
41344;DHT22;27089;50.022;7.604;2022-10-13T13:29:50;16.50;99.90
41344;DHT22;27089;50.022;7.604;2022-10-13T13:32:18;16.50;99.90
41344;DHT22;27089;50.022;7.604;2022-10-13T13:34:45;16.50;99.90
41344;DHT22;27089;50.022;7.604;2022-10-13T13:37:21;16.40;99.90
41344;DHT22;27089;50.022;7.604;2022-10-13T13:39:48;16.30;99.90
41344;DHT22;27089;50.022;7.604;2022-10-13T13:42:15;16.30;99.90
41344;DHT22;27089;50.022;7.604;2022-10-13T13:44:42;16.20;99.90
41344;DHT22;27089;50.022;7.604;2022-10-13T13:47:15;16.10;99.90
41344;DHT22;27089;50.022;7.604;2022-10-13T13:49:43;16.10;99.90
41344;DHT22;27089;50.022;7.604;2022-10-13T13:52:10;16.10;99.90
41344;DHT22;27089;50.022;7.604;2022-10-13T13:54:39;16.10;99.90
41344;DHT22;27089;50.022;7.604;2022-10-13T13:57:05;16.10;99.90
41344;DHT22;27089;50.022;7.604;2022-10-13T13:59:33;16.10;99.90
41344;DHT22;27089;50.022;7.604;2022-10-13T14:02:00;16.10;99.90
41344;DHT22;27089;50.022;7.604;2022-10-13T14:04:27;16.00;99.90
41344;DHT22;27089;50.022;7.604;2022-10-13T14:06:53;16.00;99.90
41344;DHT22;27089;50.022;7.604;2022-10-13T14:09:20;16.00;99.90
41344;DHT22;27089;50.022;7.604;2022-10-13T14:11:49;16.00;99.90
41344;DHT22;27089;50.022;7.604;2022-10-13T14:14:16;15.90;99.90
41344;DHT22;27089;50.022;7.604;2022-10-13T14:16:43;15.90;99.90
41344;DHT22;27089;50.022;7.604;2022-10-13T14:19:10;15.90;99.90
41344;DHT22;27089;50.022;7.604;2022-10-13T14:21:36;15.80;99.90
41344;DHT22;27089;50.022;7.604;2022-10-13T14:24:04;15.70;99.90
41344;DHT22;27089;50.022;7.604;2022-10-13T14:26:32;15.70;99.90
41344;DHT22;27089;50.022;7.604;2022-10-13T14:29:01;15.60;99.90
41344;DHT22;27089;50.022;7.604;2022-10-13T14:31:28;15.60;99.90
41344;DHT22;27089;50.022;7.604;2022-10-13T14:33:56;15.60;99.90
41344;DHT22;27089;50.022;7.604;2022-10-13T14:36:23;15.60;99.90
41344;DHT22;27089;50.022;7.604;2022-10-13T14:38:52;15.60;99.90
41344;DHT22;27089;50.022;7.604;2022-10-13T14:41:19;15.60;99.90
41344;DHT22;27089;50.022;7.604;2022-10-13T14:43:46;15.50;99.90
41344;DHT22;27089;50.022;7.604;2022-10-13T14:46:15;15.40;99.90
41344;DHT22;27089;50.022;7.604;2022-10-13T14:48:41;15.40;99.90
41344;DHT22;27089;50.022;7.604;2022-10-13T14:51:09;15.30;99.90
41344;DHT22;27089;50.022;7.604;2022-10-13T14:53:38;15.30;99.90
41344;DHT22;27089;50.022;7.604;2022-10-13T14:56:15;15.20;99.90
41344;DHT22;27089;50.022;7.604;2022-10-13T14:58:43;15.10;99.90
41344;DHT22;27089;50.022;7.604;2022-10-13T15:01:09;15.10;99.90
41344;DHT22;27089;50.022;7.604;2022-10-13T15:03:38;15.00;99.90
41344;DHT22;27089;50.022;7.604;2022-10-13T15:06:05;15.00;99.90
41344;DHT22;27089;50.022;7.604;2022-10-13T15:08:33;14.90;99.90
41344;DHT22;27089;50.022;7.604;2022-10-13T15:11:00;14.80;99.90
41344;DHT22;27089;50.022;7.604;2022-10-13T15:13:27;14.80;99.90
41344;DHT22;27089;50.022;7.604;2022-10-13T15:15:55;14.70;99.90
41344;DHT22;27089;50.022;7.604;2022-10-13T15:18:22;14.60;99.90
41344;DHT22;27089;50.022;7.604;2022-10-13T15:20:52;14.50;99.90
41344;DHT22;27089;50.022;7.604;2022-10-13T15:23:19;14.40;99.90
41344;DHT22;27089;50.022;7.604;2022-10-13T15:25:50;14.40;99.90
41344;DHT22;27089;50.022;7.604;2022-10-13T15:28:17;14.30;99.90
41344;DHT22;27089;50.022;7.604;2022-10-13T15:30:44;14.30;99.90
41344;DHT22;27089;50.022;7.604;2022-10-13T15:33:11;14.20;99.90
41344;DHT22;27089;50.022;7.604;2022-10-13T15:35:38;14.20;99.90
41344;DHT22;27089;50.022;7.604;2022-10-13T15:38:07;14.20;99.90
41344;DHT22;27089;50.022;7.604;2022-10-13T15:40:38;14.20;99.90
41344;DHT22;27089;50.022;7.604;2022-10-13T15:43:05;14.10;99.90
41344;DHT22;27089;50.022;7.604;2022-10-13T15:45:33;14.10;99.90
41344;DHT22;27089;50.022;7.604;2022-10-13T15:48:00;14.10;99.90
41344;DHT22;27089;50.022;7.604;2022-10-13T15:50:29;14.10;99.90
41344;DHT22;27089;50.022;7.604;2022-10-13T15:52:59;14.10;99.90
41344;DHT22;27089;50.022;7.604;2022-10-13T15:55:28;14.00;99.90
41344;DHT22;27089;50.022;7.604;2022-10-13T15:57:56;14.10;99.90
41344;DHT22;27089;50.022;7.604;2022-10-13T16:00:23;14.00;99.90
41344;DHT22;27089;50.022;7.604;2022-10-13T16:02:50;14.00;99.90